Time;durP1;ratioP1;P1;durP2;ratioP2;P2;SDS_P1;SDS_P2;PMS_P1;PMS_P2;Temp;Humidity;BMP_temperature;BMP_pressure;BME280_temperature;BME280_humidity;BME280_pressure;Samples;Min_cycle;Max_cycle;Signal;HPM_P1;HPM_P2
2021/10/15 00:01:40;;;;;;;2.78;1.60;;;;;;;;;;5031764;28;20287;-42
2021/10/15 00:04:06;;;;;;;1.50;1.40;;;;;;;;;;5033536;28;20601;-42
2021/10/15 00:06:32;;;;;;;1.65;1.38;;;;;;;;;;5034044;28;20175;-42
2021/10/15 00:08:58;;;;;;;2.42;1.50;;;;;;;;;;5033072;28;20505;-42
2021/10/15 00:11:24;;;;;;;1.60;1.50;;;;;;;;;;5029488;28;20183;-42
2021/10/15 00:13:50;;;;;;;1.85;1.70;;;;;;;;;;5027560;28;20547;-42
2021/10/15 00:16:16;;;;;;;1.70;1.60;;;;;;;;;;5033372;28;20190;-42
2021/10/15 00:18:42;;;;;;;1.38;1.27;;;;;;;;;;5030330;28;20215;-42
2021/10/15 00:21:08;;;;;;;1.83;1.70;;;;;;;;;;5027581;28;20179;-42
2021/10/15 00:23:34;;;;;;;1.60;1.50;;;;;;;;;;5019451;28;20226;-42
2021/10/15 00:26:01;;;;;;;2.47;1.50;;;;;;;;;;5018688;28;20172;-42
2021/10/15 00:28:27;;;;;;;1.30;1.20;;;;;;;;;;5026830;28;20172;-42
2021/10/15 00:30:57;;;;;;;2.17;1.50;;;;;;;;;;5036691;28;20852;-42
2021/10/15 00:33:23;;;;;;;1.42;1.33;;;;;;;;;;5036860;28;20561;-42
2021/10/15 00:35:48;;;;;;;1.55;1.40;;;;;;;;;;5035495;28;20212;-42
2021/10/15 00:38:14;;;;;;;2.13;1.63;;;;;;;;;;5036895;28;20215;-42
2021/10/15 00:40:40;;;;;;;1.52;1.42;;;;;;;;;;5036128;28;20298;-42
2021/10/15 00:43:06;;;;;;;1.75;1.50;;;;;;;;;;5016990;28;20500;-42
2021/10/15 00:45:32;;;;;;;1.70;1.60;;;;;;;;;;5018350;28;20172;-42
2021/10/15 00:47:58;;;;;;;1.60;1.50;;;;;;;;;;5017264;28;20448;-42
2021/10/15 00:50:24;;;;;;;1.55;1.40;;;;;;;;;;5034544;28;20179;-42
2021/10/15 00:52:50;;;;;;;1.50;1.40;;;;;;;;;;5035958;28;20237;-42
2021/10/15 00:55:17;;;;;;;1.55;1.35;;;;;;;;;;5031382;28;20183;-42
2021/10/15 00:57:42;;;;;;;1.63;1.52;;;;;;;;;;5018026;28;20200;-42
2021/10/15 01:00:09;;;;;;;1.65;1.40;;;;;;;;;;5033270;28;20582;-42
2021/10/15 01:02:35;;;;;;;1.70;1.55;;;;;;;;;;5018805;28;20204;-42
2021/10/15 01:05:01;;;;;;;1.70;1.60;;;;;;;;;;5033606;28;20210;-42
2021/10/15 01:07:29;;;;;;;2.05;1.60;;;;;;;;;;5017119;28;20543;-42
2021/10/15 01:09:55;;;;;;;1.60;1.50;;;;;;;;;;5028408;28;20606;-42
2021/10/15 01:12:21;;;;;;;1.50;1.40;;;;;;;;;;5036628;28;20184;-42
2021/10/15 01:14:47;;;;;;;1.75;1.50;;;;;;;;;;5035599;28;20234;-42
2021/10/15 01:17:13;;;;;;;1.40;1.30;;;;;;;;;;5034183;28;20232;-42
2021/10/15 01:19:39;;;;;;;1.15;1.05;;;;;;;;;;5035001;28;20186;-42
2021/10/15 01:22:07;;;;;;;2.67;1.52;;;;;;;;;;5018242;28;20260;-42
2021/10/15 01:24:33;;;;;;;1.40;1.30;;;;;;;;;;5028026;28;20168;-42
2021/10/15 01:27:04;;;;;;;1.40;1.30;;;;;;;;;;5035329;28;20182;-42
2021/10/15 01:29:30;;;;;;;1.50;1.40;;;;;;;;;;5027346;28;20180;-42
2021/10/15 01:31:57;;;;;;;1.55;1.25;;;;;;;;;;5022523;28;20202;-42
2021/10/15 01:34:23;;;;;;;1.30;1.20;;;;;;;;;;5032724;28;20204;-42
2021/10/15 01:36:49;;;;;;;1.90;1.70;;;;;;;;;;5017352;28;20219;-42
2021/10/15 01:39:15;;;;;;;1.50;1.40;;;;;;;;;;5016320;28;20207;-42
2021/10/15 01:41:41;;;;;;;1.50;1.40;;;;;;;;;;5026105;28;20208;-42
2021/10/15 01:44:07;;;;;;;1.40;1.30;;;;;;;;;;5015929;28;20230;-42
2021/10/15 01:46:33;;;;;;;1.60;1.25;;;;;;;;;;5022483;28;20485;-42
2021/10/15 01:48:59;;;;;;;1.17;1.10;;;;;;;;;;5035651;28;20186;-42
2021/10/15 01:51:25;;;;;;;1.45;1.35;;;;;;;;;;5020939;28;20188;-42
2021/10/15 01:53:51;;;;;;;1.40;1.30;;;;;;;;;;5029826;28;20195;-42
2021/10/15 01:56:17;;;;;;;2.00;1.48;;;;;;;;;;5015955;28;20445;-42
2021/10/15 01:58:43;;;;;;;1.40;1.30;;;;;;;;;;5016986;28;20239;-42
2021/10/15 02:01:09;;;;;;;1.50;1.40;;;;;;;;;;5020450;28;20215;-42
2021/10/15 02:03:35;;;;;;;1.20;1.10;;;;;;;;;;5015631;28;20169;-42
2021/10/15 02:06:01;;;;;;;1.33;1.20;;;;;;;;;;5016524;28;20220;-42
2021/10/15 02:08:27;;;;;;;1.40;1.30;;;;;;;;;;5015924;28;20196;-42
2021/10/15 02:10:53;;;;;;;1.40;1.30;;;;;;;;;;5015371;28;20851;-42
2021/10/15 02:13:19;;;;;;;1.52;1.23;;;;;;;;;;5024357;28;20176;-42
2021/10/15 02:15:45;;;;;;;1.50;1.40;;;;;;;;;;5035007;28;20183;-42
2021/10/15 02:18:11;;;;;;;1.50;1.40;;;;;;;;;;5034464;28;20207;-42
2021/10/15 02:20:37;;;;;;;1.30;1.20;;;;;;;;;;5031188;28;20176;-42
2021/10/15 02:23:03;;;;;;;0.90;0.90;;;;;;;;;;5015241;28;20160;-42
2021/10/15 02:25:29;;;;;;;1.30;1.20;;;;;;;;;;5014355;28;20548;-42
2021/10/15 02:27:56;;;;;;;1.75;1.20;;;;;;;;;;5023758;28;20187;-42
2021/10/15 02:30:22;;;;;;;1.40;1.30;;;;;;;;;;5015407;28;20208;-42
2021/10/15 02:32:48;;;;;;;1.35;1.25;;;;;;;;;;5024543;28;20184;-42
2021/10/15 02:35:15;;;;;;;1.50;1.40;;;;;;;;;;5034214;28;20200;-42
2021/10/15 02:37:42;;;;;;;1.30;1.20;;;;;;;;;;5034057;28;20460;-42
2021/10/15 02:40:08;;;;;;;1.50;1.40;;;;;;;;;;5034863;28;20168;-42
2021/10/15 02:42:34;;;;;;;1.30;1.20;;;;;;;;;;5016877;28;20185;-42
2021/10/15 02:45:00;;;;;;;1.38;1.27;;;;;;;;;;5026239;28;20180;-42
2021/10/15 02:47:26;;;;;;;1.40;1.20;;;;;;;;;;5018251;28;20188;-42
2021/10/15 02:49:52;;;;;;;1.10;1.10;;;;;;;;;;5025126;28;20263;-42
2021/10/15 02:52:18;;;;;;;1.30;1.20;;;;;;;;;;5026921;28;20233;-42
2021/10/15 02:54:44;;;;;;;1.45;1.10;;;;;;;;;;5021157;28;20212;-42
2021/10/15 02:57:11;;;;;;;1.60;1.50;;;;;;;;;;5019075;28;20204;-42
2021/10/15 02:59:37;;;;;;;1.42;1.30;;;;;;;;;;5031151;28;20255;-42
2021/10/15 03:02:03;;;;;;;1.20;1.10;;;;;;;;;;5034765;28;20214;-42
2021/10/15 03:04:29;;;;;;;1.60;1.50;;;;;;;;;;5018129;28;20180;-42
2021/10/15 03:06:55;;;;;;;1.10;1.00;;;;;;;;;;5015928;28;20180;-42
2021/10/15 03:09:21;;;;;;;1.33;1.23;;;;;;;;;;5029413;28;20183;-42
2021/10/15 03:11:47;;;;;;;1.20;1.20;;;;;;;;;;5014992;28;20263;-42
2021/10/15 03:14:12;;;;;;;1.52;1.42;;;;;;;;;;5014443;28;20184;-42
2021/10/15 03:16:38;;;;;;;1.33;1.23;;;;;;;;;;5015311;28;20306;-42
2021/10/15 03:19:04;;;;;;;1.40;1.30;;;;;;;;;;5034581;28;20195;-42
2021/10/15 03:21:30;;;;;;;1.30;1.20;;;;;;;;;;5034236;28;20493;-42
2021/10/15 03:23:56;;;;;;;1.20;1.10;;;;;;;;;;5025094;28;20180;-42
2021/10/15 03:26:22;;;;;;;1.10;0.98;;;;;;;;;;5025312;28;20309;-42
2021/10/15 03:28:49;;;;;;;1.38;1.20;;;;;;;;;;5022966;28;20188;-42
2021/10/15 03:31:15;;;;;;;1.15;1.05;;;;;;;;;;5023578;28;20552;-42
2021/10/15 03:33:41;;;;;;;1.60;1.10;;;;;;;;;;5032039;28;20197;-42
2021/10/15 03:36:07;;;;;;;1.08;1.08;;;;;;;;;;5027162;28;20807;-42
2021/10/15 03:38:33;;;;;;;1.45;1.30;;;;;;;;;;5021751;28;20744;-42
2021/10/15 03:40:59;;;;;;;1.52;1.20;;;;;;;;;;5022150;28;20249;-42
2021/10/15 03:43:25;;;;;;;1.05;0.95;;;;;;;;;;5022141;28;20196;-42
2021/10/15 03:45:51;;;;;;;1.55;1.10;;;;;;;;;;5025167;28;20180;-42
2021/10/15 03:48:17;;;;;;;1.30;1.20;;;;;;;;;;5031822;28;20192;-42
2021/10/15 03:50:43;;;;;;;1.13;1.10;;;;;;;;;;5014372;28;20180;-42
2021/10/15 03:53:09;;;;;;;1.02;1.00;;;;;;;;;;5015814;28;20184;-42
2021/10/15 03:55:35;;;;;;;1.25;1.15;;;;;;;;;;5023645;28;20209;-42
2021/10/15 03:58:01;;;;;;;1.50;1.20;;;;;;;;;;5022271;28;20468;-42
2021/10/15 04:00:27;;;;;;;1.27;1.17;;;;;;;;;;5018078;28;20191;-42
2021/10/15 04:02:53;;;;;;;1.35;1.25;;;;;;;;;;5017568;28;20189;-42
2021/10/15 04:05:19;;;;;;;1.60;1.20;;;;;;;;;;5018482;28;20211;-42
2021/10/15 04:07:45;;;;;;;3.15;1.70;;;;;;;;;;5036993;28;20188;-42
2021/10/15 04:10:12;;;;;;;5.93;2.08;;;;;;;;;;5032242;28;20185;-42
2021/10/15 04:12:38;;;;;;;6.07;2.30;;;;;;;;;;5017887;28;20198;-42
2021/10/15 04:15:05;;;;;;;3.10;1.85;;;;;;;;;;5017473;28;20191;-42
2021/10/15 04:17:31;;;;;;;6.13;2.22;;;;;;;;;;5033632;28;20206;-42
2021/10/15 04:19:57;;;;;;;4.32;1.80;;;;;;;;;;5029008;28;20218;-42
2021/10/15 04:22:27;;;;;;;2.72;2.03;;;;;;;;;;5017828;28;20563;-42
2021/10/15 04:24:53;;;;;;;6.97;2.10;;;;;;;;;;5019236;28;20219;-42
2021/10/15 04:27:19;;;;;;;3.75;2.13;;;;;;;;;;5018752;28;20187;-42
2021/10/15 04:29:45;;;;;;;3.75;1.63;;;;;;;;;;5029085;28;20172;-42
2021/10/15 04:32:11;;;;;;;6.38;2.20;;;;;;;;;;5029157;28;20551;-42
2021/10/15 04:34:37;;;;;;;5.68;1.80;;;;;;;;;;5033567;28;20261;-42
2021/10/15 04:37:03;;;;;;;4.03;1.70;;;;;;;;;;5036403;28;20172;-42
2021/10/15 04:39:29;;;;;;;5.25;2.10;;;;;;;;;;5029145;28;20457;-42
2021/10/15 04:41:55;;;;;;;3.67;1.95;;;;;;;;;;5017358;28;20320;-42
2021/10/15 04:44:21;;;;;;;3.35;2.00;;;;;;;;;;5016924;28;20436;-42
2021/10/15 04:46:47;;;;;;;3.75;1.90;;;;;;;;;;5033603;28;20179;-42
2021/10/15 04:49:13;;;;;;;3.47;2.00;;;;;;;;;;5030601;28;20191;-42
2021/10/15 04:51:39;;;;;;;3.50;2.05;;;;;;;;;;5022025;28;20188;-42
2021/10/15 04:54:05;;;;;;;6.80;1.98;;;;;;;;;;5026983;28;20176;-42
2021/10/15 04:56:31;;;;;;;5.15;1.45;;;;;;;;;;5022409;28;20632;-42
2021/10/15 04:58:57;;;;;;;4.90;2.17;;;;;;;;;;5017010;28;20652;-42
2021/10/15 05:01:23;;;;;;;5.82;2.00;;;;;;;;;;5026800;28;20220;-42
2021/10/15 05:03:49;;;;;;;4.30;1.75;;;;;;;;;;5022002;28;20207;-42
2021/10/15 05:06:15;;;;;;;5.80;2.20;;;;;;;;;;5023139;28;20234;-42
2021/10/15 05:09:00;;;;;;;8.23;2.00;;;;;;;;;;5035254;28;20188;-42
2021/10/15 05:11:26;;;;;;;2.92;1.48;;;;;;;;;;5029688;28;20179;-42
2021/10/15 05:13:52;;;;;;;3.90;2.08;;;;;;;;;;5033404;28;20230;-42
2021/10/15 05:16:18;;;;;;;2.65;1.60;;;;;;;;;;5016783;28;20504;-42
2021/10/15 05:18:44;;;;;;;3.28;1.80;;;;;;;;;;5035548;28;20199;-42
2021/10/15 05:21:10;;;;;;;4.35;2.08;;;;;;;;;;5034000;28;20184;-42
2021/10/15 05:23:36;;;;;;;2.70;1.60;;;;;;;;;;5016106;28;20191;-42
2021/10/15 05:26:02;;;;;;;2.45;1.60;;;;;;;;;;5026412;28;20203;-42
2021/10/15 05:28:28;;;;;;;4.05;1.60;;;;;;;;;;5026957;28;20208;-42
2021/10/15 05:30:57;;;;;;;3.35;1.63;;;;;;;;;;5019907;28;20479;-42
2021/10/15 05:33:23;;;;;;;5.68;1.67;;;;;;;;;;5035134;28;20212;-42
2021/10/15 05:35:49;;;;;;;3.42;1.70;;;;;;;;;;5030632;28;20678;-42
2021/10/15 05:38:15;;;;;;;2.42;1.60;;;;;;;;;;5036099;28;20199;-42
2021/10/15 05:40:41;;;;;;;2.25;1.45;;;;;;;;;;5027829;28;20189;-42
2021/10/15 05:43:07;;;;;;;6.03;1.90;;;;;;;;;;5015694;28;20260;-42
2021/10/15 05:45:33;;;;;;;3.83;1.40;;;;;;;;;;5023061;28;20182;-42
2021/10/15 05:47:59;;;;;;;3.05;1.55;;;;;;;;;;5035661;28;20184;-42
2021/10/15 05:50:27;;;;;;;2.78;1.35;;;;;;;;;;5028796;28;20190;-42
2021/10/15 05:52:54;;;;;;;2.92;1.40;;;;;;;;;;5026120;28;20183;-42
2021/10/15 05:55:31;;;;;;;1.92;1.55;;;;;;;;;;5025525;28;20179;-42
2021/10/15 06:00:24;;;;;;;3.47;1.55;;;;;;;;;;5021221;28;20196;-42
2021/10/15 06:02:50;;;;;;;3.38;1.50;;;;;;;;;;5015730;28;20244;-42
2021/10/15 06:15:47;;;;;;;2.95;1.35;;;;;;;;;;5032746;28;20199;-42
2021/10/15 06:18:19;;;;;;;1.98;1.23;;;;;;;;;;5027098;28;20196;-42
2021/10/15 06:20:45;;;;;;;1.65;1.48;;;;;;;;;;5015385;28;20184;-42
2021/10/15 06:23:11;;;;;;;1.90;1.50;;;;;;;;;;5014835;28;20173;-42
2021/10/15 06:25:37;;;;;;;1.55;1.30;;;;;;;;;;5020834;28;20621;-42
2021/10/15 06:28:04;;;;;;;2.53;1.48;;;;;;;;;;5026922;28;20219;-42
2021/10/15 06:30:31;;;;;;;1.85;1.20;;;;;;;;;;5026238;28;20184;-42
2021/10/15 06:32:57;;;;;;;1.75;1.20;;;;;;;;;;5026229;28;20188;-42
2021/10/15 06:35:23;;;;;;;1.67;1.33;;;;;;;;;;5029921;28;20215;-42
2021/10/15 06:37:49;;;;;;;1.95;1.20;;;;;;;;;;5015341;28;20208;-42
2021/10/15 06:40:15;;;;;;;1.52;1.10;;;;;;;;;;5015196;28;20184;-42
2021/10/15 06:42:41;;;;;;;2.55;1.45;;;;;;;;;;5027726;28;20195;-42
2021/10/15 06:45:08;;;;;;;1.35;1.25;;;;;;;;;;5030344;28;20181;-42
2021/10/15 06:47:34;;;;;;;1.27;1.17;;;;;;;;;;5030137;28;20187;-42
2021/10/15 06:50:00;;;;;;;1.75;1.20;;;;;;;;;;5030540;28;20180;-42
2021/10/15 06:52:26;;;;;;;1.38;1.20;;;;;;;;;;5015317;28;20184;-42
2021/10/15 06:54:52;;;;;;;1.40;1.30;;;;;;;;;;5019280;28;20204;-42
2021/10/15 06:57:18;;;;;;;2.05;1.30;;;;;;;;;;5021901;28;20230;-42
2021/10/15 06:59:44;;;;;;;2.03;1.40;;;;;;;;;;5031112;28;20180;-42
2021/10/15 07:02:10;;;;;;;2.08;1.30;;;;;;;;;;5031995;28;20186;-42
2021/10/15 07:04:36;;;;;;;2.78;1.45;;;;;;;;;;5029289;28;20674;-42
2021/10/15 07:07:03;;;;;;;4.75;1.40;;;;;;;;;;5015984;28;20193;-42
2021/10/15 07:09:29;;;;;;;2.30;1.13;;;;;;;;;;5014648;28;20180;-42
2021/10/15 07:11:55;;;;;;;1.85;1.23;;;;;;;;;;5028615;28;20188;-42
2021/10/15 07:14:21;;;;;;;1.55;1.30;;;;;;;;;;5024242;28;20270;-42
2021/10/15 07:16:47;;;;;;;3.13;1.52;;;;;;;;;;5017985;28;20188;-42
2021/10/15 07:19:14;;;;;;;3.55;1.30;;;;;;;;;;5014567;28;20238;-42
2021/10/15 07:21:40;;;;;;;1.75;1.23;;;;;;;;;;5029428;28;20563;-42
2021/10/15 07:24:06;;;;;;;1.67;1.23;;;;;;;;;;5029879;28;20181;-42
2021/10/15 07:26:32;;;;;;;3.58;1.83;;;;;;;;;;5014627;28;20196;-42
2021/10/15 07:28:58;;;;;;;1.63;1.20;;;;;;;;;;5024791;28;20187;-42
2021/10/15 07:31:24;;;;;;;2.17;1.25;;;;;;;;;;5031689;28;20178;-42
2021/10/15 07:33:51;;;;;;;3.67;1.30;;;;;;;;;;5026801;28;20181;-42
2021/10/15 07:36:17;;;;;;;2.22;1.40;;;;;;;;;;5038257;28;20187;-42
2021/10/15 07:38:43;;;;;;;1.48;0.98;;;;;;;;;;5037289;28;20218;-42
2021/10/15 07:41:10;;;;;;;2.22;1.00;;;;;;;;;;5027857;28;20172;-42
2021/10/15 07:43:36;;;;;;;1.92;1.67;;;;;;;;;;5030380;28;20173;-42
2021/10/15 07:46:03;;;;;;;3.55;2.47;;;;;;;;;;5030883;28;20500;-42
2021/10/15 07:48:29;;;;;;;3.78;2.70;;;;;;;;;;5037752;28;20585;-42
2021/10/15 07:50:55;;;;;;;3.78;2.85;;;;;;;;;;5035641;28;20180;-42
2021/10/15 07:53:21;;;;;;;5.60;3.28;;;;;;;;;;5024419;28;20463;-42
2021/10/15 07:55:47;;;;;;;3.72;3.38;;;;;;;;;;5034866;28;20207;-42
2021/10/15 07:58:13;;;;;;;5.97;3.92;;;;;;;;;;5038052;28;20239;-42
2021/10/15 08:00:41;;;;;;;5.40;4.10;;;;;;;;;;5036290;28;20652;-42
2021/10/15 08:03:07;;;;;;;5.85;4.10;;;;;;;;;;5035301;28;20446;-42
2021/10/15 08:05:33;;;;;;;4.97;4.15;;;;;;;;;;5035840;28;20176;-42
2021/10/15 08:07:59;;;;;;;6.10;4.13;;;;;;;;;;5037799;28;20168;-42
2021/10/15 08:10:25;;;;;;;7.50;4.70;;;;;;;;;;5037536;28;20176;-42
2021/10/15 08:12:51;;;;;;;7.10;5.10;;;;;;;;;;5036617;28;20190;-42
2021/10/15 08:15:18;;;;;;;6.28;4.20;;;;;;;;;;5028678;28;20190;-42
2021/10/15 08:17:44;;;;;;;6.22;4.50;;;;;;;;;;5025775;28;20211;-42
2021/10/15 08:20:11;;;;;;;7.35;4.43;;;;;;;;;;5019463;28;20219;-42
2021/10/15 08:22:37;;;;;;;5.80;3.28;;;;;;;;;;5057551;28;20174;-42
2021/10/15 08:25:04;;;;;;;4.47;2.92;;;;;;;;;;5038796;28;20202;-42
2021/10/15 08:27:30;;;;;;;3.20;2.90;;;;;;;;;;5025917;28;20884;-42
2021/10/15 08:29:56;;;;;;;4.00;2.42;;;;;;;;;;5029597;28;20271;-42
2021/10/15 08:32:22;;;;;;;4.55;2.47;;;;;;;;;;5024652;28;20266;-42
2021/10/15 08:34:48;;;;;;;3.88;2.70;;;;;;;;;;5038568;28;20409;-42
2021/10/15 08:37:14;;;;;;;3.10;2.40;;;;;;;;;;5024154;28;20543;-42
2021/10/15 08:39:40;;;;;;;3.40;2.10;;;;;;;;;;5016850;28;20187;-42
2021/10/15 08:42:06;;;;;;;4.10;1.90;;;;;;;;;;5027964;28;20267;-42
2021/10/15 08:44:32;;;;;;;2.33;1.95;;;;;;;;;;5017017;28;20165;-42
2021/10/15 08:46:59;;;;;;;2.58;2.30;;;;;;;;;;5021777;28;20180;-42
2021/10/15 08:49:25;;;;;;;3.55;2.08;;;;;;;;;;5034196;28;20176;-42
2021/10/15 08:51:52;;;;;;;3.80;2.22;;;;;;;;;;5017645;28;20614;-42
2021/10/15 08:54:18;;;;;;;2.83;2.00;;;;;;;;;;5042759;28;20180;-42
2021/10/15 08:56:45;;;;;;;2.40;1.60;;;;;;;;;;5029900;28;20176;-42
2021/10/15 08:59:15;;;;;;;4.53;1.80;;;;;;;;;;5036770;28;20195;-42
2021/10/15 09:01:41;;;;;;;2.42;1.63;;;;;;;;;;5035514;28;20192;-42
2021/10/15 09:04:07;;;;;;;5.05;1.75;;;;;;;;;;5028619;28;20512;-42
2021/10/15 09:06:37;;;;;;;2.10;1.60;;;;;;;;;;5016959;28;20180;-42
2021/10/15 09:09:04;;;;;;;2.78;1.70;;;;;;;;;;5017067;28;20453;-42
2021/10/15 09:11:34;;;;;;;1.70;1.40;;;;;;;;;;5033422;28;20191;-42
2021/10/15 09:14:11;;;;;;;1.98;1.52;;;;;;;;;;5035011;28;20564;-42
2021/10/15 09:16:53;;;;;;;4.18;1.63;;;;;;;;;;5031130;28;20183;-42
2021/10/15 09:19:28;;;;;;;1.77;1.48;;;;;;;;;;5029087;28;20200;-42
2021/10/15 09:22:13;;;;;;;2.17;1.33;;;;;;;;;;5019556;28;20194;-42
2021/10/15 09:24:42;;;;;;;1.33;1.20;;;;;;;;;;5027471;28;20184;-42
2021/10/15 09:27:11;;;;;;;2.72;1.42;;;;;;;;;;5016618;28;20176;-42
2021/10/15 09:29:45;;;;;;;1.17;1.05;;;;;;;;;;5026589;28;20206;-42
2021/10/15 09:32:11;;;;;;;2.25;1.20;;;;;;;;;;5035329;28;20215;-42
2021/10/15 09:34:39;;;;;;;1.40;1.20;;;;;;;;;;5027071;28;20241;-42
2021/10/15 09:37:12;;;;;;;2.85;1.67;;;;;;;;;;5026813;28;20267;-42
2021/10/15 09:39:38;;;;;;;2.97;1.45;;;;;;;;;;5033576;28;20265;-42
2021/10/15 09:42:04;;;;;;;1.95;1.60;;;;;;;;;;5023286;28;20189;-42
2021/10/15 09:44:34;;;;;;;2.25;1.30;;;;;;;;;;5035690;28;20428;-42
2021/10/15 09:47:17;;;;;;;2.35;1.30;;;;;;;;;;5026894;28;20179;-42
2021/10/15 09:49:54;;;;;;;2.25;1.20;;;;;;;;;;5022007;28;20180;-42
2021/10/15 09:52:26;;;;;;;2.70;1.40;;;;;;;;;;5020116;28;20262;-42
2021/10/15 09:54:56;;;;;;;2.15;1.30;;;;;;;;;;5025946;28;20179;-42
2021/10/15 09:57:33;;;;;;;3.22;1.30;;;;;;;;;;5016335;28;20216;-42
2021/10/15 09:59:59;;;;;;;4.00;1.73;;;;;;;;;;5015746;28;20164;-42
2021/10/15 10:02:25;;;;;;;2.60;2.00;;;;;;;;;;5017526;28;20196;-42
2021/10/15 10:04:55;;;;;;;3.05;2.20;;;;;;;;;;5029299;28;20183;-42
2021/10/15 10:07:22;;;;;;;2.67;1.77;;;;;;;;;;5024065;28;20589;-42
2021/10/15 10:09:48;;;;;;;2.00;1.90;;;;;;;;;;5019837;28;20180;-42
2021/10/15 10:12:15;;;;;;;3.00;1.83;;;;;;;;;;5023484;28;20181;-42
2021/10/15 10:14:41;;;;;;;2.72;1.58;;;;;;;;;;5018416;28;20180;-42
2021/10/15 10:17:09;;;;;;;2.55;1.70;;;;;;;;;;5025106;28;20255;-42
2021/10/15 10:19:37;;;;;;;2.97;1.48;;;;;;;;;;5032011;28;20221;-42
2021/10/15 10:22:03;;;;;;;3.70;1.60;;;;;;;;;;5022524;28;20491;-42
2021/10/15 10:24:31;;;;;;;1.98;1.60;;;;;;;;;;5014979;28;20215;-42
2021/10/15 10:26:58;;;;;;;1.40;1.30;;;;;;;;;;5016166;28;20211;-42
2021/10/15 10:29:25;;;;;;;2.17;1.50;;;;;;;;;;5026654;28;20210;-42
2021/10/15 10:31:54;;;;;;;1.85;1.38;;;;;;;;;;5029821;28;20187;-42
2021/10/15 10:34:26;;;;;;;1.88;1.40;;;;;;;;;;5021517;28;20180;-42
2021/10/15 10:37:06;;;;;;;1.33;1.17;;;;;;;;;;5034798;28;20195;-42
2021/10/15 10:39:32;;;;;;;1.70;1.10;;;;;;;;;;5035037;28;20483;-42
2021/10/15 10:42:02;;;;;;;2.10;1.48;;;;;;;;;;5033659;28;20187;-42
2021/10/15 10:44:28;;;;;;;3.83;1.40;;;;;;;;;;5031111;28;20175;-42
2021/10/15 10:47:10;;;;;;;3.17;1.60;;;;;;;;;;5021086;28;20173;-43
2021/10/15 10:49:37;;;;;;;5.88;1.60;;;;;;;;;;5031818;28;20268;-42
2021/10/15 10:52:07;;;;;;;4.93;2.00;;;;;;;;;;5031835;28;20186;-42
2021/10/15 10:54:33;;;;;;;4.35;1.90;;;;;;;;;;5022189;28;20554;-42
2021/10/15 10:57:12;;;;;;;5.32;2.40;;;;;;;;;;5026994;28;20180;-42
2021/10/15 10:59:38;;;;;;;7.78;2.22;;;;;;;;;;5015102;28;20196;-42
2021/10/15 11:02:04;;;;;;;4.15;2.03;;;;;;;;;;5027135;28;20184;-42
2021/10/15 11:04:36;;;;;;;3.33;2.10;;;;;;;;;;5026641;28;20546;-42
2021/10/15 11:07:02;;;;;;;6.47;2.25;;;;;;;;;;5024949;28;20176;-42
2021/10/15 11:09:30;;;;;;;6.55;2.35;;;;;;;;;;5028337;28;20548;-42
2021/10/15 11:11:56;;;;;;;6.28;2.00;;;;;;;;;;5020406;28;20181;-42
2021/10/15 11:14:24;;;;;;;5.00;2.35;;;;;;;;;;5014462;28;20211;-42
2021/10/15 11:16:50;;;;;;;4.95;1.80;;;;;;;;;;5030495;28;20183;-42
2021/10/15 11:19:20;;;;;;;4.70;2.03;;;;;;;;;;5020475;28;20502;-42
2021/10/15 11:21:46;;;;;;;4.13;1.70;;;;;;;;;;5026787;28;20192;-42
2021/10/15 11:24:15;;;;;;;5.63;1.73;;;;;;;;;;5018865;28;20502;-42
2021/10/15 11:26:41;;;;;;;6.25;1.88;;;;;;;;;;5015256;28;20699;-42
2021/10/15 11:29:07;;;;;;;8.93;1.98;;;;;;;;;;5022229;28;20188;-42
2021/10/15 11:31:33;;;;;;;4.13;1.85;;;;;;;;;;5019846;28;20308;-42
2021/10/15 11:34:13;;;;;;;4.95;1.70;;;;;;;;;;5029137;28;20483;-42
2021/10/15 11:36:39;;;;;;;6.95;1.60;;;;;;;;;;5015378;28;20172;-42
2021/10/15 11:39:06;;;;;;;2.65;1.52;;;;;;;;;;5024111;28;20341;-42
2021/10/15 11:41:33;;;;;;;3.70;1.83;;;;;;;;;;5019964;28;20191;-42
2021/10/15 11:43:59;;;;;;;3.03;1.35;;;;;;;;;;5029235;28;20194;-42
2021/10/15 11:46:30;;;;;;;3.47;1.60;;;;;;;;;;5024164;28;20269;-42
2021/10/15 11:48:56;;;;;;;1.58;1.40;;;;;;;;;;5014349;28;20235;-42
2021/10/15 11:51:23;;;;;;;5.35;1.35;;;;;;;;;;5015694;28;20189;-42
2021/10/15 11:53:57;;;;;;;2.30;1.30;;;;;;;;;;5015561;28;20165;-42
2021/10/15 11:56:27;;;;;;;2.15;1.50;;;;;;;;;;5028423;28;20219;-42
2021/10/15 11:58:55;;;;;;;2.72;1.20;;;;;;;;;;5033457;28;20203;-42
2021/10/15 12:01:27;;;;;;;5.20;1.63;;;;;;;;;;5028681;28;20191;-42
2021/10/15 12:03:54;;;;;;;3.70;1.58;;;;;;;;;;5022291;28;20311;-42
2021/10/15 12:06:40;;;;;;;3.25;1.73;;;;;;;;;;5019722;28;20212;-42
2021/10/15 12:09:09;;;;;;;7.22;2.00;;;;;;;;;;5029764;28;20179;-42
2021/10/15 12:11:41;;;;;;;3.58;1.80;;;;;;;;;;5022219;28;20185;-42
2021/10/15 12:14:07;;;;;;;3.50;1.98;;;;;;;;;;5018440;28;20184;-42
2021/10/15 12:16:35;;;;;;;3.40;1.90;;;;;;;;;;5036135;28;20890;-42
2021/10/15 12:19:07;;;;;;;3.95;2.33;;;;;;;;;;5018210;28;20338;-42
2021/10/15 12:21:38;;;;;;;4.93;2.08;;;;;;;;;;5017562;28;20253;-42
2021/10/15 12:24:09;;;;;;;4.47;2.17;;;;;;;;;;5036165;28;20175;-42
2021/10/15 12:26:35;;;;;;;3.60;1.80;;;;;;;;;;5018471;28;20238;-42
2021/10/15 12:29:02;;;;;;;6.78;2.10;;;;;;;;;;5024057;28;20309;-42
2021/10/15 12:31:30;;;;;;;3.75;2.10;;;;;;;;;;5022122;28;20262;-42
2021/10/15 12:33:59;;;;;;;4.13;2.00;;;;;;;;;;5034425;28;20183;-42
2021/10/15 12:36:25;;;;;;;5.22;2.00;;;;;;;;;;5018506;28;20216;-42
2021/10/15 12:38:51;;;;;;;2.47;1.65;;;;;;;;;;5017196;28;20297;-42
2021/10/15 12:41:26;;;;;;;4.82;1.95;;;;;;;;;;5018620;28;20211;-42
2021/10/15 12:43:54;;;;;;;4.63;2.22;;;;;;;;;;5017882;28;20180;-42
2021/10/15 12:46:20;;;;;;;2.60;1.95;;;;;;;;;;5017368;28;20439;-42
2021/10/15 12:49:01;;;;;;;3.67;1.73;;;;;;;;;;5017181;28;20260;-42
2021/10/15 12:51:36;;;;;;;4.13;1.80;;;;;;;;;;5017090;28;20270;-42
2021/10/15 12:54:02;;;;;;;4.50;2.20;;;;;;;;;;5026752;28;20221;-42
2021/10/15 12:56:31;;;;;;;3.17;2.13;;;;;;;;;;5022747;28;20191;-42
2021/10/15 12:58:59;;;;;;;5.85;2.67;;;;;;;;;;5020731;28;20235;-42
2021/10/15 13:01:26;;;;;;;5.25;2.10;;;;;;;;;;5029830;28;20589;-42
2021/10/15 13:03:52;;;;;;;3.53;2.00;;;;;;;;;;5017908;28;20671;-42
2021/10/15 13:06:18;;;;;;;6.03;2.70;;;;;;;;;;5017112;28;20527;-42
2021/10/15 13:08:49;;;;;;;3.60;1.90;;;;;;;;;;5016842;28;20172;-42
2021/10/15 13:11:18;;;;;;;3.67;2.15;;;;;;;;;;5022308;28;20173;-42
2021/10/15 13:13:44;;;;;;;5.15;2.10;;;;;;;;;;5021745;28;20186;-42
2021/10/15 13:16:10;;;;;;;2.45;1.75;;;;;;;;;;5034937;28;20183;-43
2021/10/15 13:18:36;;;;;;;4.88;2.30;;;;;;;;;;5036256;28;20222;-42
2021/10/15 13:21:02;;;;;;;3.60;1.80;;;;;;;;;;5036147;28;20187;-42
2021/10/15 13:23:28;;;;;;;5.35;2.50;;;;;;;;;;5035297;28;20239;-42
2021/10/15 13:25:54;;;;;;;4.68;1.88;;;;;;;;;;5022856;28;20204;-42
2021/10/15 13:28:20;;;;;;;2.90;2.10;;;;;;;;;;5031737;28;20235;-42
2021/10/15 13:30:47;;;;;;;3.97;1.88;;;;;;;;;;5024928;28;20251;-42
2021/10/15 13:33:16;;;;;;;4.50;2.13;;;;;;;;;;5034892;28;20190;-42
2021/10/15 13:35:46;;;;;;;3.90;1.83;;;;;;;;;;5018765;28;20185;-42
2021/10/15 13:38:15;;;;;;;2.38;1.90;;;;;;;;;;5016281;28;20192;-42
2021/10/15 13:41:34;;;;;;;3.55;1.88;;;;;;;;;;5022528;28;20172;-42
2021/10/15 13:46:10;;;;;;;3.83;1.90;;;;;;;;;;5034567;28;20226;-42
2021/10/15 13:51:23;;;;;;;3.40;1.80;;;;;;;;;;5015370;28;20187;-42
2021/10/15 13:53:49;;;;;;;4.15;1.85;;;;;;;;;;5017325;28;20173;-44
2021/10/15 13:56:16;;;;;;;4.72;2.00;;;;;;;;;;5031176;28;20691;-42
2021/10/15 13:58:43;;;;;;;3.78;1.80;;;;;;;;;;5018449;28;20201;-42
2021/10/15 14:01:34;;;;;;;4.13;2.05;;;;;;;;;;5016027;28;20448;-42
2021/10/15 14:06:24;;;;;;;6.00;1.70;;;;;;;;;;5018258;28;20263;-42
2021/10/15 14:08:50;;;;;;;2.70;1.60;;;;;;;;;;5035516;28;20209;-42
2021/10/15 14:11:18;;;;;;;4.20;1.85;;;;;;;;;;5033656;28;20191;-42
2021/10/15 14:13:44;;;;;;;3.30;1.60;;;;;;;;;;5017266;28;20187;-45
2021/10/15 14:16:12;;;;;;;4.38;2.28;;;;;;;;;;5015512;28;20267;-42
2021/10/15 14:18:38;;;;;;;2.10;1.77;;;;;;;;;;5015498;28;20200;-42
2021/10/15 14:21:04;;;;;;;1.95;1.60;;;;;;;;;;5015626;28;20222;-42
2021/10/15 14:23:30;;;;;;;3.63;1.80;;;;;;;;;;5014637;28;20180;-42
2021/10/15 14:25:56;;;;;;;3.08;1.80;;;;;;;;;;5020738;28;20507;-42
2021/10/15 14:28:23;;;;;;;4.32;1.60;;;;;;;;;;5016586;28;20188;-42
2021/10/15 14:30:50;;;;;;;2.17;1.50;;;;;;;;;;5026320;28;20513;-42
2021/10/15 14:33:16;;;;;;;2.33;1.65;;;;;;;;;;5027971;28;20493;-42
2021/10/15 14:35:42;;;;;;;2.17;1.45;;;;;;;;;;5034547;28;20184;-42
2021/10/15 14:38:08;;;;;;;4.28;1.65;;;;;;;;;;5032646;28;20668;-42
2021/10/15 14:40:34;;;;;;;2.28;1.42;;;;;;;;;;5024514;28;20173;-42
2021/10/15 14:43:01;;;;;;;2.20;1.30;;;;;;;;;;5014871;28;20183;-42
2021/10/15 14:45:27;;;;;;;2.97;1.67;;;;;;;;;;5015576;28;20179;-42
2021/10/15 14:47:52;;;;;;;2.03;1.55;;;;;;;;;;5015697;28;20439;-42
2021/10/15 14:50:18;;;;;;;2.42;1.67;;;;;;;;;;5032943;28;20211;-42
2021/10/15 14:52:44;;;;;;;1.88;1.30;;;;;;;;;;5024521;28;20459;-42
2021/10/15 14:55:10;;;;;;;1.80;1.52;;;;;;;;;;5016477;28;20287;-42
2021/10/15 14:57:36;;;;;;;2.25;1.70;;;;;;;;;;5015193;28;20176;-42
2021/10/15 15:00:03;;;;;;;2.47;1.75;;;;;;;;;;5015152;28;20551;-42
2021/10/15 15:02:30;;;;;;;2.38;1.40;;;;;;;;;;5015203;28;20176;-42
2021/10/15 15:04:56;;;;;;;1.77;1.45;;;;;;;;;;5026067;28;20188;-42